sensor_id;sensor_type;location;lat;lon;timestamp;temperature;humidity
5617;DHT22;2830;50.656;7.568;2023-05-14T00:01:29;8.00;99.90
5617;DHT22;2830;50.656;7.568;2023-05-14T00:03:56;8.00;99.90
5617;DHT22;2830;50.656;7.568;2023-05-14T00:06:22;8.00;99.90
5617;DHT22;2830;50.656;7.568;2023-05-14T00:08:49;8.00;99.90
5617;DHT22;2830;50.656;7.568;2023-05-14T00:11:16;8.10;99.90
5617;DHT22;2830;50.656;7.568;2023-05-14T00:13:42;8.00;99.90
5617;DHT22;2830;50.656;7.568;2023-05-14T00:16:10;8.00;99.90
5617;DHT22;2830;50.656;7.568;2023-05-14T00:18:36;8.00;99.90
5617;DHT22;2830;50.656;7.568;2023-05-14T00:21:03;7.90;99.90
5617;DHT22;2830;50.656;7.568;2023-05-14T00:23:30;7.80;99.90
5617;DHT22;2830;50.656;7.568;2023-05-14T00:25:56;7.70;99.90
5617;DHT22;2830;50.656;7.568;2023-05-14T00:28:23;7.70;99.90
5617;DHT22;2830;50.656;7.568;2023-05-14T00:30:50;7.70;99.90
5617;DHT22;2830;50.656;7.568;2023-05-14T00:33:17;7.70;99.90
5617;DHT22;2830;50.656;7.568;2023-05-14T00:35:43;7.70;99.90
5617;DHT22;2830;50.656;7.568;2023-05-14T00:38:10;7.70;99.90
5617;DHT22;2830;50.656;7.568;2023-05-14T00:40:42;7.60;99.90
5617;DHT22;2830;50.656;7.568;2023-05-14T00:43:11;7.60;99.90
5617;DHT22;2830;50.656;7.568;2023-05-14T00:45:38;7.50;99.90
5617;DHT22;2830;50.656;7.568;2023-05-14T00:48:04;7.50;99.90
5617;DHT22;2830;50.656;7.568;2023-05-14T00:50:31;7.50;99.90
5617;DHT22;2830;50.656;7.568;2023-05-14T00:52:59;7.40;99.90
5617;DHT22;2830;50.656;7.568;2023-05-14T00:55:28;7.40;99.90
5617;DHT22;2830;50.656;7.568;2023-05-14T00:57:56;7.40;99.90
5617;DHT22;2830;50.656;7.568;2023-05-14T01:00:26;7.30;99.90
5617;DHT22;2830;50.656;7.568;2023-05-14T01:02:52;7.30;99.90
5617;DHT22;2830;50.656;7.568;2023-05-14T01:05:20;7.30;99.90
5617;DHT22;2830;50.656;7.568;2023-05-14T01:07:59;7.30;99.90
5617;DHT22;2830;50.656;7.568;2023-05-14T01:10:33;7.30;99.90
5617;DHT22;2830;50.656;7.568;2023-05-14T01:13:19;7.30;99.90
5617;DHT22;2830;50.656;7.568;2023-05-14T01:15:48;7.30;99.90
5617;DHT22;2830;50.656;7.568;2023-05-14T01:18:17;7.30;99.90
5617;DHT22;2830;50.656;7.568;2023-05-14T01:20:53;7.30;99.90
5617;DHT22;2830;50.656;7.568;2023-05-14T01:23:19;7.40;99.90
5617;DHT22;2830;50.656;7.568;2023-05-14T01:25:46;7.40;99.90
5617;DHT22;2830;50.656;7.568;2023-05-14T01:28:19;7.40;99.90
5617;DHT22;2830;50.656;7.568;2023-05-14T01:30:56;7.40;99.90
5617;DHT22;2830;50.656;7.568;2023-05-14T01:33:25;7.40;99.90
5617;DHT22;2830;50.656;7.568;2023-05-14T01:35:53;7.40;99.90
5617;DHT22;2830;50.656;7.568;2023-05-14T01:38:21;7.50;99.90
5617;DHT22;2830;50.656;7.568;2023-05-14T01:40:49;7.50;99.90
5617;DHT22;2830;50.656;7.568;2023-05-14T01:43:16;7.50;99.90
5617;DHT22;2830;50.656;7.568;2023-05-14T01:45:44;7.40;99.90
5617;DHT22;2830;50.656;7.568;2023-05-14T01:48:11;7.40;99.90
5617;DHT22;2830;50.656;7.568;2023-05-14T01:50:38;7.30;99.90
5617;DHT22;2830;50.656;7.568;2023-05-14T01:53:04;7.30;99.90
5617;DHT22;2830;50.656;7.568;2023-05-14T01:55:31;7.30;99.90
5617;DHT22;2830;50.656;7.568;2023-05-14T01:57:58;7.20;99.90
5617;DHT22;2830;50.656;7.568;2023-05-14T02:00:25;7.20;99.90
5617;DHT22;2830;50.656;7.568;2023-05-14T02:02:52;7.20;99.90
5617;DHT22;2830;50.656;7.568;2023-05-14T02:05:19;7.20;99.90
5617;DHT22;2830;50.656;7.568;2023-05-14T02:07:46;7.30;99.90
5617;DHT22;2830;50.656;7.568;2023-05-14T02:10:13;7.30;99.90
5617;DHT22;2830;50.656;7.568;2023-05-14T02:12:40;7.20;99.90
5617;DHT22;2830;50.656;7.568;2023-05-14T02:15:07;7.20;99.90
5617;DHT22;2830;50.656;7.568;2023-05-14T02:17:36;7.10;99.90
5617;DHT22;2830;50.656;7.568;2023-05-14T02:20:03;7.10;99.90
5617;DHT22;2830;50.656;7.568;2023-05-14T02:22:30;7.10;99.90
5617;DHT22;2830;50.656;7.568;2023-05-14T02:24:57;7.10;99.90
5617;DHT22;2830;50.656;7.568;2023-05-14T02:27:23;7.20;99.90
5617;DHT22;2830;50.656;7.568;2023-05-14T02:29:51;7.20;99.90
5617;DHT22;2830;50.656;7.568;2023-05-14T02:32:18;7.20;99.90
5617;DHT22;2830;50.656;7.568;2023-05-14T02:34:44;7.30;99.90
5617;DHT22;2830;50.656;7.568;2023-05-14T02:37:11;7.30;99.90
5617;DHT22;2830;50.656;7.568;2023-05-14T02:39:38;7.40;99.90
5617;DHT22;2830;50.656;7.568;2023-05-14T02:42:04;7.40;99.90
5617;DHT22;2830;50.656;7.568;2023-05-14T02:44:31;7.40;99.90
5617;DHT22;2830;50.656;7.568;2023-05-14T02:46:58;7.40;99.90
5617;DHT22;2830;50.656;7.568;2023-05-14T02:49:25;7.30;99.90
5617;DHT22;2830;50.656;7.568;2023-05-14T02:51:51;7.30;99.90
5617;DHT22;2830;50.656;7.568;2023-05-14T02:54:19;7.20;99.90
5617;DHT22;2830;50.656;7.568;2023-05-14T02:56:48;7.10;99.90
5617;DHT22;2830;50.656;7.568;2023-05-14T02:59:15;7.10;99.90
5617;DHT22;2830;50.656;7.568;2023-05-14T03:01:42;7.20;99.90
5617;DHT22;2830;50.656;7.568;2023-05-14T03:04:09;7.20;99.90
5617;DHT22;2830;50.656;7.568;2023-05-14T03:06:35;7.20;99.90
5617;DHT22;2830;50.656;7.568;2023-05-14T03:09:02;7.10;99.90
5617;DHT22;2830;50.656;7.568;2023-05-14T03:11:29;7.00;99.90
5617;DHT22;2830;50.656;7.568;2023-05-14T03:13:56;6.90;99.90
5617;DHT22;2830;50.656;7.568;2023-05-14T03:16:22;6.80;99.90
5617;DHT22;2830;50.656;7.568;2023-05-14T03:18:49;6.90;99.90
5617;DHT22;2830;50.656;7.568;2023-05-14T03:21:16;6.90;99.90
5617;DHT22;2830;50.656;7.568;2023-05-14T03:23:42;6.90;99.90
5617;DHT22;2830;50.656;7.568;2023-05-14T03:26:09;6.80;99.90
5617;DHT22;2830;50.656;7.568;2023-05-14T03:28:35;6.70;99.90
5617;DHT22;2830;50.656;7.568;2023-05-14T03:31:02;6.70;99.90
5617;DHT22;2830;50.656;7.568;2023-05-14T03:33:29;6.80;99.90
5617;DHT22;2830;50.656;7.568;2023-05-14T03:35:56;6.70;99.90
5617;DHT22;2830;50.656;7.568;2023-05-14T03:38:23;6.60;99.90
5617;DHT22;2830;50.656;7.568;2023-05-14T03:40:49;6.50;99.90
5617;DHT22;2830;50.656;7.568;2023-05-14T03:43:16;6.50;99.90
5617;DHT22;2830;50.656;7.568;2023-05-14T03:45:43;6.60;99.90
5617;DHT22;2830;50.656;7.568;2023-05-14T03:48:09;6.50;99.90
5617;DHT22;2830;50.656;7.568;2023-05-14T03:50:36;6.50;99.90
5617;DHT22;2830;50.656;7.568;2023-05-14T03:53:03;6.40;99.90
5617;DHT22;2830;50.656;7.568;2023-05-14T03:55:29;6.50;99.90
5617;DHT22;2830;50.656;7.568;2023-05-14T03:57:56;6.60;99.90
5617;DHT22;2830;50.656;7.568;2023-05-14T04:00:22;6.70;99.90
5617;DHT22;2830;50.656;7.568;2023-05-14T04:02:49;6.60;99.90
5617;DHT22;2830;50.656;7.568;2023-05-14T04:05:16;6.60;99.90
5617;DHT22;2830;50.656;7.568;2023-05-14T04:07:43;6.40;99.90
5617;DHT22;2830;50.656;7.568;2023-05-14T04:10:12;6.50;99.90
5617;DHT22;2830;50.656;7.568;2023-05-14T04:12:38;6.50;99.90
5617;DHT22;2830;50.656;7.568;2023-05-14T04:15:05;6.40;99.90
5617;DHT22;2830;50.656;7.568;2023-05-14T04:17:32;6.30;99.90
5617;DHT22;2830;50.656;7.568;2023-05-14T04:20:00;6.20;99.90
5617;DHT22;2830;50.656;7.568;2023-05-14T04:22:27;6.30;99.90
5617;DHT22;2830;50.656;7.568;2023-05-14T04:24:54;6.20;99.90
5617;DHT22;2830;50.656;7.568;2023-05-14T04:27:20;6.40;99.90
5617;DHT22;2830;50.656;7.568;2023-05-14T04:29:50;6.40;99.90
5617;DHT22;2830;50.656;7.568;2023-05-14T04:32:17;6.50;99.90
5617;DHT22;2830;50.656;7.568;2023-05-14T04:34:43;6.60;99.90
5617;DHT22;2830;50.656;7.568;2023-05-14T04:37:12;6.70;99.90
5617;DHT22;2830;50.656;7.568;2023-05-14T04:39:38;6.70;99.90
5617;DHT22;2830;50.656;7.568;2023-05-14T04:42:05;6.70;99.90
5617;DHT22;2830;50.656;7.568;2023-05-14T04:44:33;6.90;99.90
5617;DHT22;2830;50.656;7.568;2023-05-14T04:47:00;6.90;99.90
5617;DHT22;2830;50.656;7.568;2023-05-14T04:49:28;6.90;99.90
5617;DHT22;2830;50.656;7.568;2023-05-14T04:51:55;6.90;99.90
5617;DHT22;2830;50.656;7.568;2023-05-14T04:54:21;6.80;99.90
5617;DHT22;2830;50.656;7.568;2023-05-14T04:56:49;6.80;99.90
5617;DHT22;2830;50.656;7.568;2023-05-14T04:59:16;7.00;99.90
5617;DHT22;2830;50.656;7.568;2023-05-14T05:01:43;7.10;99.90
5617;DHT22;2830;50.656;7.568;2023-05-14T05:04:10;7.20;99.90
5617;DHT22;2830;50.656;7.568;2023-05-14T05:06:37;7.40;99.90
5617;DHT22;2830;50.656;7.568;2023-05-14T05:09:04;7.50;99.90
5617;DHT22;2830;50.656;7.568;2023-05-14T05:11:30;7.50;99.90
5617;DHT22;2830;50.656;7.568;2023-05-14T05:13:57;7.50;99.90
5617;DHT22;2830;50.656;7.568;2023-05-14T05:16:23;7.80;99.90
5617;DHT22;2830;50.656;7.568;2023-05-14T05:18:50;7.90;99.90
5617;DHT22;2830;50.656;7.568;2023-05-14T05:21:17;8.10;99.90
5617;DHT22;2830;50.656;7.568;2023-05-14T05:23:43;8.00;99.90
5617;DHT22;2830;50.656;7.568;2023-05-14T05:26:10;8.10;99.90
5617;DHT22;2830;50.656;7.568;2023-05-14T05:28:37;8.30;99.90
5617;DHT22;2830;50.656;7.568;2023-05-14T05:31:03;8.80;99.90
5617;DHT22;2830;50.656;7.568;2023-05-14T05:33:30;9.20;99.90
5617;DHT22;2830;50.656;7.568;2023-05-14T05:35:57;9.30;99.90
5617;DHT22;2830;50.656;7.568;2023-05-14T05:38:23;9.70;99.90
5617;DHT22;2830;50.656;7.568;2023-05-14T05:40:50;10.10;99.90
5617;DHT22;2830;50.656;7.568;2023-05-14T05:43:17;10.50;99.90
5617;DHT22;2830;50.656;7.568;2023-05-14T05:45:44;10.90;99.90
5617;DHT22;2830;50.656;7.568;2023-05-14T05:48:11;11.30;99.90
5617;DHT22;2830;50.656;7.568;2023-05-14T05:50:38;11.40;99.90
5617;DHT22;2830;50.656;7.568;2023-05-14T05:53:04;11.90;99.60
5617;DHT22;2830;50.656;7.568;2023-05-14T05:55:31;12.40;97.80
5617;DHT22;2830;50.656;7.568;2023-05-14T05:57:58;12.60;98.60
5617;DHT22;2830;50.656;7.568;2023-05-14T06:00:24;13.00;97.80
5617;DHT22;2830;50.656;7.568;2023-05-14T06:02:51;13.50;97.40
5617;DHT22;2830;50.656;7.568;2023-05-14T06:05:18;13.70;96.50
5617;DHT22;2830;50.656;7.568;2023-05-14T06:07:45;13.70;95.20
5617;DHT22;2830;50.656;7.568;2023-05-14T06:10:11;13.60;96.00
5617;DHT22;2830;50.656;7.568;2023-05-14T06:12:38;14.20;96.30
5617;DHT22;2830;50.656;7.568;2023-05-14T06:15:06;14.70;94.00
5617;DHT22;2830;50.656;7.568;2023-05-14T06:17:34;14.90;94.80
5617;DHT22;2830;50.656;7.568;2023-05-14T06:20:00;15.20;93.40
5617;DHT22;2830;50.656;7.568;2023-05-14T06:22:27;15.10;92.50
5617;DHT22;2830;50.656;7.568;2023-05-14T06:24:53;15.00;94.10
5617;DHT22;2830;50.656;7.568;2023-05-14T06:27:20;15.00;93.90
5617;DHT22;2830;50.656;7.568;2023-05-14T06:29:47;14.80;94.30
5617;DHT22;2830;50.656;7.568;2023-05-14T06:32:13;14.80;94.70
5617;DHT22;2830;50.656;7.568;2023-05-14T06:34:41;14.70;95.00
5617;DHT22;2830;50.656;7.568;2023-05-14T06:37:09;15.20;94.80
5617;DHT22;2830;50.656;7.568;2023-05-14T06:39:36;15.40;94.30
5617;DHT22;2830;50.656;7.568;2023-05-14T06:42:04;15.70;94.60
5617;DHT22;2830;50.656;7.568;2023-05-14T06:44:31;16.20;93.00
5617;DHT22;2830;50.656;7.568;2023-05-14T06:46:57;16.20;92.60
5617;DHT22;2830;50.656;7.568;2023-05-14T06:49:24;16.40;92.10
5617;DHT22;2830;50.656;7.568;2023-05-14T06:51:51;16.40;92.50
5617;DHT22;2830;50.656;7.568;2023-05-14T06:54:17;16.50;92.20
5617;DHT22;2830;50.656;7.568;2023-05-14T06:56:45;17.00;92.70
5617;DHT22;2830;50.656;7.568;2023-05-14T06:59:12;18.20;90.60
5617;DHT22;2830;50.656;7.568;2023-05-14T07:01:39;18.80;87.00
5617;DHT22;2830;50.656;7.568;2023-05-14T07:04:06;19.20;82.40
5617;DHT22;2830;50.656;7.568;2023-05-14T07:06:33;19.30;81.60
5617;DHT22;2830;50.656;7.568;2023-05-14T07:09:00;18.90;83.60
5617;DHT22;2830;50.656;7.568;2023-05-14T07:11:27;18.50;87.10
5617;DHT22;2830;50.656;7.568;2023-05-14T07:13:53;18.70;87.30
5617;DHT22;2830;50.656;7.568;2023-05-14T07:16:20;18.80;86.10
5617;DHT22;2830;50.656;7.568;2023-05-14T07:18:47;19.00;85.70
5617;DHT22;2830;50.656;7.568;2023-05-14T07:21:13;19.00;87.40
5617;DHT22;2830;50.656;7.568;2023-05-14T07:23:41;19.30;88.00
5617;DHT22;2830;50.656;7.568;2023-05-14T07:26:08;19.50;86.00
5617;DHT22;2830;50.656;7.568;2023-05-14T07:28:34;19.90;84.10
5617;DHT22;2830;50.656;7.568;2023-05-14T07:31:01;20.30;82.10
5617;DHT22;2830;50.656;7.568;2023-05-14T07:33:30;20.60;83.80
5617;DHT22;2830;50.656;7.568;2023-05-14T07:35:57;21.70;80.20
5617;DHT22;2830;50.656;7.568;2023-05-14T07:38:23;22.10;72.20
5617;DHT22;2830;50.656;7.568;2023-05-14T07:40:50;22.50;71.40
5617;DHT22;2830;50.656;7.568;2023-05-14T07:43:16;23.50;67.50
5617;DHT22;2830;50.656;7.568;2023-05-14T07:45:43;23.50;64.00
5617;DHT22;2830;50.656;7.568;2023-05-14T07:48:10;23.30;68.50
5617;DHT22;2830;50.656;7.568;2023-05-14T07:50:37;23.20;68.20
5617;DHT22;2830;50.656;7.568;2023-05-14T07:53:04;22.90;66.90
5617;DHT22;2830;50.656;7.568;2023-05-14T07:55:30;22.80;69.20
5617;DHT22;2830;50.656;7.568;2023-05-14T07:57:57;22.50;65.80
5617;DHT22;2830;50.656;7.568;2023-05-14T08:00:24;22.20;67.70
5617;DHT22;2830;50.656;7.568;2023-05-14T08:02:50;22.10;70.00
5617;DHT22;2830;50.656;7.568;2023-05-14T08:05:17;22.50;67.30
5617;DHT22;2830;50.656;7.568;2023-05-14T08:07:44;22.70;69.30
5617;DHT22;2830;50.656;7.568;2023-05-14T08:10:11;22.90;66.10
5617;DHT22;2830;50.656;7.568;2023-05-14T08:12:38;23.00;67.50
5617;DHT22;2830;50.656;7.568;2023-05-14T08:15:05;22.80;66.80
5617;DHT22;2830;50.656;7.568;2023-05-14T08:17:33;22.50;69.60
5617;DHT22;2830;50.656;7.568;2023-05-14T08:19:59;23.10;71.50
5617;DHT22;2830;50.656;7.568;2023-05-14T08:22:27;24.00;67.60
5617;DHT22;2830;50.656;7.568;2023-05-14T08:24:53;24.20;67.50
5617;DHT22;2830;50.656;7.568;2023-05-14T08:27:20;24.30;67.20
5617;DHT22;2830;50.656;7.568;2023-05-14T08:29:47;23.90;67.20
5617;DHT22;2830;50.656;7.568;2023-05-14T08:32:13;23.60;63.10
5617;DHT22;2830;50.656;7.568;2023-05-14T08:34:49;23.50;66.60
5617;DHT22;2830;50.656;7.568;2023-05-14T08:37:16;23.80;64.80
5617;DHT22;2830;50.656;7.568;2023-05-14T08:39:43;24.00;65.80
5617;DHT22;2830;50.656;7.568;2023-05-14T08:42:11;24.50;61.00
5617;DHT22;2830;50.656;7.568;2023-05-14T08:44:48;25.30;60.90
5617;DHT22;2830;50.656;7.568;2023-05-14T08:47:20;26.10;59.50
5617;DHT22;2830;50.656;7.568;2023-05-14T08:49:52;25.90;60.10
5617;DHT22;2830;50.656;7.568;2023-05-14T08:52:21;25.20;59.60
5617;DHT22;2830;50.656;7.568;2023-05-14T08:54:49;24.00;60.10
5617;DHT22;2830;50.656;7.568;2023-05-14T08:57:17;23.50;64.10
5617;DHT22;2830;50.656;7.568;2023-05-14T08:59:45;23.60;62.90
5617;DHT22;2830;50.656;7.568;2023-05-14T09:02:14;22.90;65.40
5617;DHT22;2830;50.656;7.568;2023-05-14T09:04:42;22.40;68.50
5617;DHT22;2830;50.656;7.568;2023-05-14T09:07:10;21.80;69.60
5617;DHT22;2830;50.656;7.568;2023-05-14T09:09:37;21.60;71.70
5617;DHT22;2830;50.656;7.568;2023-05-14T09:12:05;21.90;69.40
5617;DHT22;2830;50.656;7.568;2023-05-14T09:14:32;21.70;70.10
5617;DHT22;2830;50.656;7.568;2023-05-14T09:16:59;21.50;72.10
5617;DHT22;2830;50.656;7.568;2023-05-14T09:19:26;21.40;71.90
5617;DHT22;2830;50.656;7.568;2023-05-14T09:21:56;21.70;70.90
5617;DHT22;2830;50.656;7.568;2023-05-14T09:24:26;23.00;68.90
5617;DHT22;2830;50.656;7.568;2023-05-14T09:26:57;24.10;64.30
5617;DHT22;2830;50.656;7.568;2023-05-14T09:29:24;25.50;62.20
5617;DHT22;2830;50.656;7.568;2023-05-14T09:31:52;26.80;54.40
5617;DHT22;2830;50.656;7.568;2023-05-14T09:34:26;27.10;54.50
5617;DHT22;2830;50.656;7.568;2023-05-14T09:36:55;26.40;53.60
5617;DHT22;2830;50.656;7.568;2023-05-14T09:39:24;25.10;55.30
5617;DHT22;2830;50.656;7.568;2023-05-14T09:41:51;23.90;57.80
5617;DHT22;2830;50.656;7.568;2023-05-14T09:44:18;23.20;59.80
5617;DHT22;2830;50.656;7.568;2023-05-14T09:46:45;22.70;62.10
5617;DHT22;2830;50.656;7.568;2023-05-14T09:49:13;22.50;64.00
5617;DHT22;2830;50.656;7.568;2023-05-14T09:51:40;22.10;66.60
5617;DHT22;2830;50.656;7.568;2023-05-14T09:54:07;21.60;66.00
5617;DHT22;2830;50.656;7.568;2023-05-14T09:56:36;21.10;68.10
5617;DHT22;2830;50.656;7.568;2023-05-14T09:59:04;20.80;71.00
5617;DHT22;2830;50.656;7.568;2023-05-14T10:01:31;21.40;68.20
5617;DHT22;2830;50.656;7.568;2023-05-14T10:03:58;23.40;68.00
5617;DHT22;2830;50.656;7.568;2023-05-14T10:06:27;25.10;57.30
5617;DHT22;2830;50.656;7.568;2023-05-14T10:09:03;24.60;58.30
5617;DHT22;2830;50.656;7.568;2023-05-14T10:11:33;23.80;59.80
5617;DHT22;2830;50.656;7.568;2023-05-14T10:14:10;25.30;61.20
5617;DHT22;2830;50.656;7.568;2023-05-14T10:16:52;26.70;55.80
5617;DHT22;2830;50.656;7.568;2023-05-14T10:19:22;28.10;52.80
5617;DHT22;2830;50.656;7.568;2023-05-14T10:21:55;29.70;51.20
5617;DHT22;2830;50.656;7.568;2023-05-14T10:24:23;30.60;48.40
5617;DHT22;2830;50.656;7.568;2023-05-14T10:26:51;31.20;47.50
5617;DHT22;2830;50.656;7.568;2023-05-14T10:29:18;31.20;44.60
5617;DHT22;2830;50.656;7.568;2023-05-14T10:31:52;30.60;47.80
5617;DHT22;2830;50.656;7.568;2023-05-14T10:34:39;29.00;47.80
5617;DHT22;2830;50.656;7.568;2023-05-14T10:37:27;28.00;44.00
5617;DHT22;2830;50.656;7.568;2023-05-14T10:40:01;27.70;45.00
5617;DHT22;2830;50.656;7.568;2023-05-14T10:42:35;29.20;44.40
5617;DHT22;2830;50.656;7.568;2023-05-14T10:45:05;29.90;41.60
5617;DHT22;2830;50.656;7.568;2023-05-14T10:47:45;30.30;40.90
5617;DHT22;2830;50.656;7.568;2023-05-14T10:50:14;31.80;42.80
5617;DHT22;2830;50.656;7.568;2023-05-14T10:52:42;32.90;39.80
5617;DHT22;2830;50.656;7.568;2023-05-14T10:55:12;32.60;41.50
5617;DHT22;2830;50.656;7.568;2023-05-14T10:57:42;32.40;40.70
5617;DHT22;2830;50.656;7.568;2023-05-14T11:00:11;32.10;35.80
5617;DHT22;2830;50.656;7.568;2023-05-14T11:02:41;31.50;38.30
5617;DHT22;2830;50.656;7.568;2023-05-14T11:05:13;31.50;39.30
5617;DHT22;2830;50.656;7.568;2023-05-14T11:07:46;31.40;37.10
5617;DHT22;2830;50.656;7.568;2023-05-14T11:10:20;32.30;38.90
5617;DHT22;2830;50.656;7.568;2023-05-14T11:12:51;31.10;42.20
5617;DHT22;2830;50.656;7.568;2023-05-14T11:15:22;31.20;42.70
5617;DHT22;2830;50.656;7.568;2023-05-14T11:17:50;31.20;39.90
5617;DHT22;2830;50.656;7.568;2023-05-14T11:20:18;29.10;43.60
5617;DHT22;2830;50.656;7.568;2023-05-14T11:22:46;27.60;45.00
5617;DHT22;2830;50.656;7.568;2023-05-14T11:25:13;26.80;48.20
5617;DHT22;2830;50.656;7.568;2023-05-14T11:27:42;26.20;47.40
5617;DHT22;2830;50.656;7.568;2023-05-14T11:30:14;25.90;50.00
5617;DHT22;2830;50.656;7.568;2023-05-14T11:32:43;25.20;49.20
5617;DHT22;2830;50.656;7.568;2023-05-14T11:35:10;25.00;51.60
5617;DHT22;2830;50.656;7.568;2023-05-14T11:37:37;26.90;48.00
5617;DHT22;2830;50.656;7.568;2023-05-14T11:40:14;28.20;50.10
5617;DHT22;2830;50.656;7.568;2023-05-14T11:42:41;29.20;45.90
5617;DHT22;2830;50.656;7.568;2023-05-14T11:45:23;28.90;48.40
5617;DHT22;2830;50.656;7.568;2023-05-14T11:47:52;27.70;47.30
5617;DHT22;2830;50.656;7.568;2023-05-14T11:50:21;27.40;48.50
5617;DHT22;2830;50.656;7.568;2023-05-14T11:52:48;26.80;46.00
5617;DHT22;2830;50.656;7.568;2023-05-14T11:55:16;26.10;50.30
5617;DHT22;2830;50.656;7.568;2023-05-14T11:57:43;24.90;49.80
5617;DHT22;2830;50.656;7.568;2023-05-14T12:00:10;24.20;53.10
5617;DHT22;2830;50.656;7.568;2023-05-14T12:02:47;23.60;53.00
5617;DHT22;2830;50.656;7.568;2023-05-14T12:05:15;23.20;54.50
5617;DHT22;2830;50.656;7.568;2023-05-14T12:07:46;22.60;53.90
5617;DHT22;2830;50.656;7.568;2023-05-14T12:10:15;22.20;53.10
5617;DHT22;2830;50.656;7.568;2023-05-14T12:12:45;22.30;58.00
5617;DHT22;2830;50.656;7.568;2023-05-14T12:15:13;22.70;57.10
5617;DHT22;2830;50.656;7.568;2023-05-14T12:17:42;23.70;53.30
5617;DHT22;2830;50.656;7.568;2023-05-14T12:20:14;24.70;55.60
5617;DHT22;2830;50.656;7.568;2023-05-14T12:22:41;24.90;50.00
5617;DHT22;2830;50.656;7.568;2023-05-14T12:25:11;24.50;51.60
5617;DHT22;2830;50.656;7.568;2023-05-14T12:27:38;24.10;50.30
5617;DHT22;2830;50.656;7.568;2023-05-14T12:30:06;23.70;55.40
5617;DHT22;2830;50.656;7.568;2023-05-14T12:32:37;23.60;52.40
5617;DHT22;2830;50.656;7.568;2023-05-14T12:35:08;23.60;52.30
5617;DHT22;2830;50.656;7.568;2023-05-14T12:37:34;23.90;58.20
5617;DHT22;2830;50.656;7.568;2023-05-14T12:40:03;24.60;51.40
5617;DHT22;2830;50.656;7.568;2023-05-14T12:42:34;24.80;50.40
5617;DHT22;2830;50.656;7.568;2023-05-14T12:45:01;25.30;52.50
5617;DHT22;2830;50.656;7.568;2023-05-14T12:47:31;25.70;46.20
5617;DHT22;2830;50.656;7.568;2023-05-14T12:49:57;26.10;45.60
5617;DHT22;2830;50.656;7.568;2023-05-14T12:52:24;26.30;45.40
5617;DHT22;2830;50.656;7.568;2023-05-14T12:55:04;26.30;44.60
5617;DHT22;2830;50.656;7.568;2023-05-14T12:57:31;26.40;46.70
5617;DHT22;2830;50.656;7.568;2023-05-14T13:00:00;26.40;49.30
5617;DHT22;2830;50.656;7.568;2023-05-14T13:02:27;25.90;50.40
5617;DHT22;2830;50.656;7.568;2023-05-14T13:04:53;25.80;53.00
5617;DHT22;2830;50.656;7.568;2023-05-14T13:07:20;25.80;53.70
5617;DHT22;2830;50.656;7.568;2023-05-14T13:09:47;25.00;55.10
5617;DHT22;2830;50.656;7.568;2023-05-14T13:12:13;24.40;56.60
5617;DHT22;2830;50.656;7.568;2023-05-14T13:14:40;24.20;60.40
5617;DHT22;2830;50.656;7.568;2023-05-14T13:17:06;24.30;63.00
5617;DHT22;2830;50.656;7.568;2023-05-14T13:19:33;23.50;59.30
5617;DHT22;2830;50.656;7.568;2023-05-14T13:22:00;22.70;61.40
5617;DHT22;2830;50.656;7.568;2023-05-14T13:24:27;22.40;62.40
5617;DHT22;2830;50.656;7.568;2023-05-14T13:26:53;21.90;64.00
5617;DHT22;2830;50.656;7.568;2023-05-14T13:29:20;21.50;68.40
5617;DHT22;2830;50.656;7.568;2023-05-14T13:31:46;21.30;70.20
5617;DHT22;2830;50.656;7.568;2023-05-14T13:34:13;21.40;72.50
5617;DHT22;2830;50.656;7.568;2023-05-14T13:36:40;21.20;74.10
5617;DHT22;2830;50.656;7.568;2023-05-14T13:39:09;21.00;75.80
5617;DHT22;2830;50.656;7.568;2023-05-14T13:41:39;20.70;76.50
5617;DHT22;2830;50.656;7.568;2023-05-14T13:44:06;20.60;77.80
5617;DHT22;2830;50.656;7.568;2023-05-14T13:46:33;20.40;78.90
5617;DHT22;2830;50.656;7.568;2023-05-14T13:49:00;20.40;80.70
5617;DHT22;2830;50.656;7.568;2023-05-14T13:51:26;20.40;78.90
5617;DHT22;2830;50.656;7.568;2023-05-14T13:53:53;20.40;76.20
5617;DHT22;2830;50.656;7.568;2023-05-14T13:56:24;20.30;75.90
5617;DHT22;2830;50.656;7.568;2023-05-14T13:58:51;20.30;79.20
5617;DHT22;2830;50.656;7.568;2023-05-14T14:01:18;20.30;79.20
5617;DHT22;2830;50.656;7.568;2023-05-14T14:03:44;20.20;79.40
5617;DHT22;2830;50.656;7.568;2023-05-14T14:06:11;20.00;80.00
5617;DHT22;2830;50.656;7.568;2023-05-14T14:08:38;20.00;81.50
5617;DHT22;2830;50.656;7.568;2023-05-14T14:11:04;20.10;82.30
5617;DHT22;2830;50.656;7.568;2023-05-14T14:13:31;20.40;81.40
5617;DHT22;2830;50.656;7.568;2023-05-14T14:15:58;20.40;79.10
5617;DHT22;2830;50.656;7.568;2023-05-14T14:18:25;20.40;80.80
5617;DHT22;2830;50.656;7.568;2023-05-14T14:20:51;20.70;80.80
5617;DHT22;2830;50.656;7.568;2023-05-14T14:23:18;20.70;77.00
5617;DHT22;2830;50.656;7.568;2023-05-14T14:25:45;20.90;77.20
5617;DHT22;2830;50.656;7.568;2023-05-14T14:28:11;20.90;77.20
5617;DHT22;2830;50.656;7.568;2023-05-14T14:30:39;21.10;76.00
5617;DHT22;2830;50.656;7.568;2023-05-14T14:33:05;21.20;73.80
5617;DHT22;2830;50.656;7.568;2023-05-14T14:35:32;21.40;74.00
5617;DHT22;2830;50.656;7.568;2023-05-14T14:38:00;21.50;73.30
5617;DHT22;2830;50.656;7.568;2023-05-14T14:40:27;21.50;71.80
5617;DHT22;2830;50.656;7.568;2023-05-14T14:42:55;21.30;73.00
5617;DHT22;2830;50.656;7.568;2023-05-14T14:45:21;21.40;73.30
5617;DHT22;2830;50.656;7.568;2023-05-14T14:47:48;21.50;75.70
5617;DHT22;2830;50.656;7.568;2023-05-14T14:50:15;21.70;71.10
5617;DHT22;2830;50.656;7.568;2023-05-14T14:52:42;21.60;69.90
5617;DHT22;2830;50.656;7.568;2023-05-14T14:55:11;21.30;73.90
5617;DHT22;2830;50.656;7.568;2023-05-14T14:57:38;20.90;78.40
5617;DHT22;2830;50.656;7.568;2023-05-14T15:00:05;20.40;73.50
5617;DHT22;2830;50.656;7.568;2023-05-14T15:02:32;19.90;77.90
5617;DHT22;2830;50.656;7.568;2023-05-14T15:04:59;19.40;81.20
5617;DHT22;2830;50.656;7.568;2023-05-14T15:07:26;19.00;87.70
5617;DHT22;2830;50.656;7.568;2023-05-14T15:09:53;18.80;84.20
5617;DHT22;2830;50.656;7.568;2023-05-14T15:12:19;18.60;86.90
5617;DHT22;2830;50.656;7.568;2023-05-14T15:14:46;18.60;81.50
5617;DHT22;2830;50.656;7.568;2023-05-14T15:17:13;18.60;82.10
5617;DHT22;2830;50.656;7.568;2023-05-14T15:19:39;18.70;84.70
5617;DHT22;2830;50.656;7.568;2023-05-14T15:22:06;18.70;86.20
5617;DHT22;2830;50.656;7.568;2023-05-14T15:24:32;18.70;83.60
5617;DHT22;2830;50.656;7.568;2023-05-14T15:26:59;18.80;86.50
5617;DHT22;2830;50.656;7.568;2023-05-14T15:29:26;18.80;85.90
5617;DHT22;2830;50.656;7.568;2023-05-14T15:31:52;18.90;84.50
5617;DHT22;2830;50.656;7.568;2023-05-14T15:34:19;18.90;84.40
5617;DHT22;2830;50.656;7.568;2023-05-14T15:36:46;18.90;83.40
5617;DHT22;2830;50.656;7.568;2023-05-14T15:39:13;19.20;90.10
5617;DHT22;2830;50.656;7.568;2023-05-14T15:41:39;19.30;86.30
5617;DHT22;2830;50.656;7.568;2023-05-14T15:44:07;19.50;85.90
5617;DHT22;2830;50.656;7.568;2023-05-14T15:46:34;19.60;82.60
5617;DHT22;2830;50.656;7.568;2023-05-14T15:49:01;19.80;82.40
5617;DHT22;2830;50.656;7.568;2023-05-14T15:51:28;19.90;79.00
5617;DHT22;2830;50.656;7.568;2023-05-14T15:53:54;20.10;80.00
5617;DHT22;2830;50.656;7.568;2023-05-14T15:56:21;20.20;79.70
5617;DHT22;2830;50.656;7.568;2023-05-14T15:58:48;20.30;77.00
5617;DHT22;2830;50.656;7.568;2023-05-14T16:01:15;20.20;74.50
5617;DHT22;2830;50.656;7.568;2023-05-14T16:03:42;20.30;77.00
5617;DHT22;2830;50.656;7.568;2023-05-14T16:06:09;20.30;71.70
5617;DHT22;2830;50.656;7.568;2023-05-14T16:08:37;20.30;73.10
5617;DHT22;2830;50.656;7.568;2023-05-14T16:11:04;20.30;72.50